Concho, Oklahoma
Current Conditions -  °F | °C
As of 11:55 AM on Monday 24 Nov 2014 (Local Time) from KRQO Reporting Station
Clear Clear  
Wind Chill: 54°   Ceiling: Unl
Heat Index: 54°   Visibility: 10mi
Dew Point: 27°   Wind: 15mph
Humidity: 35%   Direction: 280°W
Pressure: 29.99"   Gusts: 24mph
Location:  35.62°N, 97.99°W
Report Text: KRQO 241755Z AUTO 28013G21KT 10SM CLR 12/M03 A2999 RMK AO2
Loading
Personal Weather Stations






























Interactive Weather Map New forecast layout! Learn more

10-Day Weather Forecast

Advertisements
Track Severe Weather on mobile